National Weather Service Raw Text Product

Displaying AFOS PIL: TAFDSM Received: 2018-12-06 10:05 UTC


110 
FTUS43 KDMX 061005 AAA
TAFDSM
TAF AMD
KDSM 061005Z 0610/0706 36012G18KT P6SM OVC014
     FM061300 33012KT P6SM SCT020=